CYYT

St. John's International Airport

St. John's, Canada
METAR CYYT 172100Z 30024G30KT 15SM FEW024 FEW220 M09/M14 A2981 RMK SC1CI1 PRESRR SLP104
Observed Flight Rules
Feb-17 @ 21:00 UTC (37 minutes ago) Visual Flight Rules
Wind Visibility Clouds
300° at 24 knots
 Gusting to 30 knots
15 miles
  • Few at 2,400' AGL
  • Few at 22,000' AGL
Temperatures Readings
Current -9°C / 16°F
Dewpoint -14°C / 7°F
Humidity 67%
Altimeter 29.81" Hg
Pressure 1010.4 hPa
Elevation 140
METAR CYYT 172100Z 30024G30KT 15SM FEW024 FEW220 M09/M14 A2981 RMK SC1CI1 PRESRR SLP104
Observed Flight Rules
Feb-17 @ 21:00 UTC
(37 minutes ago)
VFR
Wind Visibility
300° at 24 knots
 Gusting to 30 knots
15 miles
Clouds
  • Few at 2,400' AGL
  • Few at 22,000' AGL
Temperature Dewpoint
-9°C / 16°F -14°C / 7°F
Humidity Altimeter Pressure
67% 29.81" Hg 1010.4 hPa